Time;durP1;ratioP1;P1;durP2;ratioP2;P2;SDS_P1;SDS_P2;PMS_P1;PMS_P2;Temp;Humidity;BMP_temperature;BMP_pressure;BME280_temperature;BME280_humidity;BME280_pressure;Samples;Min_cycle;Max_cycle;Signal;HPM_P1;HPM_P2
2022/08/02 00:00:41;;;;;;;0.60;0.40;;;;;;;27.85;32.30;98357.75;4992101;28;20089;-87
2022/08/02 00:03:07;;;;;;;2.08;0.70;;;;;;;27.81;32.19;98345.84;4997634;28;20120;-86
2022/08/02 00:05:32;;;;;;;0.98;0.50;;;;;;;27.82;32.31;98358.22;4978091;28;20041;-86
2022/08/02 00:07:58;;;;;;;0.63;0.50;;;;;;;27.80;32.18;98366.50;4995426;28;20030;-85
2022/08/02 00:10:23;;;;;;;0.68;0.32;;;;;;;27.80;32.33;98371.88;5016454;28;20030;-85
2022/08/02 00:12:49;;;;;;;2.17;0.50;;;;;;;27.79;32.32;98369.41;4998702;28;20045;-86
2022/08/02 00:15:14;;;;;;;0.60;0.38;;;;;;;27.79;31.98;98369.41;5015706;28;20148;-85
2022/08/02 00:17:40;;;;;;;1.85;0.50;;;;;;;27.79;32.04;98369.41;5015834;28;20542;-86
2022/08/02 00:20:06;;;;;;;1.02;0.55;;;;;;;27.77;32.53;98375.03;4998017;28;20030;-85
2022/08/02 00:22:31;;;;;;;0.90;0.40;;;;;;;27.74;32.00;98370.13;4982145;28;20030;-84
2022/08/02 00:24:57;;;;;;;2.58;0.57;;;;;;;27.77;32.35;98376.91;4997393;28;20033;-85
2022/08/02 00:27:23;;;;;;;0.60;0.38;;;;;;;27.75;31.99;98373.63;5015796;28;20038;-84
2022/08/02 00:29:50;;;;;;;0.93;0.40;;;;;;;27.72;31.98;98376.78;4982062;28;20057;-85
2022/08/02 00:32:16;;;;;;;1.38;0.52;;;;;;;27.70;32.16;98370.84;4998372;28;20032;-85
2022/08/02 00:34:41;;;;;;;0.80;0.50;;;;;;;27.71;32.16;98381.34;4997905;28;20037;-85
2022/08/02 00:37:07;;;;;;;0.60;0.40;;;;;;;27.69;32.05;98386.13;4981596;28;20042;-86
2022/08/02 00:39:32;;;;;;;0.55;0.30;;;;;;;27.66;32.05;98377.72;4981001;28;20073;-84
2022/08/02 00:41:58;;;;;;;0.85;0.40;;;;;;;27.67;32.43;98380.16;4981404;28;20072;-83
2022/08/02 00:44:24;;;;;;;1.38;0.40;;;;;;;27.65;32.32;98381.47;4997634;28;20489;-83
2022/08/02 00:46:49;;;;;;;1.13;0.52;;;;;;;27.60;32.29;98372.25;4997831;28;20500;-86
2022/08/02 00:49:15;;;;;;;0.63;0.40;;;;;;;27.59;32.23;98373.31;5015215;28;20073;-84
2022/08/02 00:51:40;;;;;;;1.27;0.32;;;;;;;27.56;32.22;98367.59;4997643;28;20436;-87
2022/08/02 00:54:06;;;;;;;0.55;0.30;;;;;;;27.53;32.59;98376.94;4997610;28;20026;-87
2022/08/02 00:56:32;;;;;;;1.00;0.50;;;;;;;27.52;32.37;98377.19;4997440;28;20026;-85
2022/08/02 00:58:58;;;;;;;0.52;0.40;;;;;;;27.48;32.68;98378.69;5015450;28;20040;-85
2022/08/02 01:01:38;;;;;;;0.47;0.30;;;;;;;27.47;32.58;98380.56;4981121;28;20058;-86
2022/08/02 01:04:08;;;;;;;0.45;0.30;;;;;;;27.41;32.67;98376.97;4982841;28;20123;-85
2022/08/02 01:06:34;;;;;;;0.93;0.40;;;;;;;27.34;32.49;98373.59;4981355;28;20095;-87
2022/08/02 01:09:00;;;;;;;0.55;0.30;;;;;;;27.34;32.92;98384.31;4980701;28;20493;-86
2022/08/02 01:11:29;;;;;;;0.57;0.30;;;;;;;27.29;32.35;98383.34;4981447;28;20489;-85
2022/08/02 01:14:03;;;;;;;0.88;0.50;;;;;;;27.29;32.59;98384.16;4981238;28;20030;-87
2022/08/02 01:16:30;;;;;;;1.40;0.50;;;;;;;27.20;32.29;98381.03;4997685;28;20034;-87
2022/08/02 01:19:01;;;;;;;1.35;0.30;;;;;;;27.19;32.39;98383.94;4981234;28;20034;-86
2022/08/02 01:21:44;;;;;;;1.48;0.40;;;;;;;27.21;32.63;98376.47;4997559;28;20037;-85
2022/08/02 01:24:23;;;;;;;0.68;0.40;;;;;;;27.19;33.16;98384.75;5015032;28;20168;-86
2022/08/02 01:26:57;;;;;;;2.15;0.40;;;;;;;27.13;33.31;98384.88;4981907;28;20026;-84
2022/08/02 01:29:29;;;;;;;1.25;0.40;;;;;;;27.08;33.48;98389.06;4981449;28;20029;-85
2022/08/02 01:31:58;;;;;;;0.73;0.40;;;;;;;27.04;33.74;98384.41;4997171;28;20080;-76
2022/08/02 01:34:44;;;;;;;1.38;0.60;;;;;;;27.06;33.27;98388.47;4980703;28;20413;-81
2022/08/02 01:37:17;;;;;;;1.10;0.47;;;;;;;27.02;33.58;98386.50;4980943;28;20449;-81
2022/08/02 01:39:43;;;;;;;1.48;0.50;;;;;;;26.93;34.16;98390.56;4964606;28;20098;-81
2022/08/02 01:42:09;;;;;;;0.98;0.45;;;;;;;26.86;34.10;98394.16;4980611;28;20026;-80
2022/08/02 01:44:36;;;;;;;1.15;0.50;;;;;;;26.86;34.04;98378.09;4980384;28;20168;-81
2022/08/02 01:47:08;;;;;;;0.97;0.57;;;;;;;26.84;34.41;98398.16;4964218;28;20041;-80
2022/08/02 01:49:33;;;;;;;1.75;0.60;;;;;;;26.73;34.79;98391.72;4981307;28;20030;-81
2022/08/02 01:52:32;;;;;;;2.33;0.50;;;;;;;26.61;34.74;98385.50;4963829;28;20125;-81
2022/08/02 01:55:39;;;;;;;1.10;0.60;;;;;;;26.54;35.36;98394.44;4984507;28;20042;-80
2022/08/02 01:58:06;;;;;;;1.52;0.70;;;;;;;26.54;35.11;98397.13;4902611;29;20040;-80
2022/08/02 02:00:32;;;;;;;2.25;0.55;;;;;;;26.54;34.84;98393.63;4887227;29;20102;-80
2022/08/02 02:02:58;;;;;;;2.15;0.50;;;;;;;26.47;35.41;98391.06;4886755;29;20142;-80
2022/08/02 02:05:25;;;;;;;4.80;0.50;;;;;;;26.50;35.50;98393.28;4918284;29;20042;-81
2022/08/02 02:07:52;;;;;;;5.07;0.75;;;;;;;26.51;35.72;98392.22;4902601;29;20044;-80
2022/08/02 02:10:23;;;;;;;0.85;0.52;;;;;;;26.47;35.59;98385.72;4919267;29;20487;-81
2022/08/02 02:12:50;;;;;;;1.17;0.50;;;;;;;26.42;35.64;98382.06;4934670;29;20606;-81
2022/08/02 02:15:15;;;;;;;1.45;0.50;;;;;;;26.40;35.95;98379.63;4934496;29;20388;-81
2022/08/02 02:17:42;;;;;;;0.95;0.55;;;;;;;26.34;35.76;98385.88;4887129;29;20071;-81
2022/08/02 02:20:12;;;;;;;1.30;0.50;;;;;;;26.29;36.25;98383.09;4902386;29;20132;-80
2022/08/02 02:22:37;;;;;;;1.05;0.52;;;;;;;26.25;36.21;98385.41;4902295;29;20043;-80
2022/08/02 02:25:03;;;;;;;1.52;0.60;;;;;;;26.12;35.80;98383.72;4933825;29;20034;-80
2022/08/02 02:27:29;;;;;;;1.05;0.50;;;;;;;26.15;35.86;98387.78;4933900;29;20110;-80
2022/08/02 02:29:54;;;;;;;1.58;0.57;;;;;;;26.13;35.93;98385.34;4917916;29;20036;-80
2022/08/02 02:32:19;;;;;;;2.38;0.50;;;;;;;26.12;35.85;98399.75;4917388;29;20031;-80
2022/08/02 02:34:45;;;;;;;0.70;0.50;;;;;;;26.09;36.28;98386.88;4977051;28;20048;-80
2022/08/02 02:37:21;;;;;;;2.33;0.43;;;;;;;26.09;35.95;98378.84;4979764;28;20113;-80
2022/08/02 02:39:48;;;;;;;0.63;0.43;;;;;;;26.14;36.00;98386.16;4979660;28;20036;-81
2022/08/02 02:42:15;;;;;;;1.13;0.40;;;;;;;26.15;35.81;98391.28;4979827;28;20030;-81
2022/08/02 02:44:41;;;;;;;0.90;0.50;;;;;;;26.13;35.93;98385.34;4962616;28;20397;-81
2022/08/02 02:47:06;;;;;;;0.60;0.50;;;;;;;26.11;35.97;98391.97;4979271;28;20033;-81
2022/08/02 02:49:32;;;;;;;1.13;0.40;;;;;;;26.08;35.90;98385.22;5013296;28;20030;-81
2022/08/02 02:51:57;;;;;;;1.20;0.50;;;;;;;26.04;35.80;98383.22;4979545;28;20033;-81
2022/08/02 02:54:23;;;;;;;1.52;0.60;;;;;;;26.03;35.93;98390.44;4963011;28;20062;-81
2022/08/02 02:56:48;;;;;;;1.65;0.60;;;;;;;25.99;36.02;98383.91;4962919;28;20030;-81
2022/08/02 02:59:14;;;;;;;0.80;0.50;;;;;;;26.01;35.99;98389.81;4979167;28;20037;-81
2022/08/02 03:01:39;;;;;;;0.70;0.50;;;;;;;26.04;35.91;98397.41;4979466;28;20033;-80
2022/08/02 03:04:06;;;;;;;0.60;0.40;;;;;;;26.04;35.78;98392.03;4978840;28;20054;-81
2022/08/02 03:06:32;;;;;;;2.17;0.50;;;;;;;26.04;35.71;98394.72;4995263;28;20025;-82
2022/08/02 03:08:57;;;;;;;1.42;0.60;;;;;;;26.05;35.91;98398.25;4962973;28;20556;-80
2022/08/02 03:11:24;;;;;;;0.75;0.40;;;;;;;26.05;35.96;98398.25;4978984;28;20547;-80
2022/08/02 03:13:49;;;;;;;0.55;0.40;;;;;;;26.10;35.37;98401.03;4962821;28;20092;-80
2022/08/02 03:16:15;;;;;;;0.50;0.40;;;;;;;26.09;35.82;98402.06;4979109;28;20026;-79
2022/08/02 03:18:42;;;;;;;2.28;0.40;;;;;;;26.10;35.37;98399.16;4995020;28;20030;-79
2022/08/02 03:21:10;;;;;;;0.55;0.50;;;;;;;26.30;35.34;98406.94;4978546;28;20420;-81
2022/08/02 03:23:36;;;;;;;0.70;0.50;;;;;;;26.21;35.10;98402.13;4995612;28;20096;-81
2022/08/02 03:26:01;;;;;;;0.60;0.40;;;;;;;26.18;35.25;98409.56;4978998;28;20440;-80
2022/08/02 03:28:27;;;;;;;1.10;0.75;;;;;;;26.04;35.59;98418.78;4995107;28;20034;-79
2022/08/02 03:30:53;;;;;;;1.38;0.50;;;;;;;26.06;35.43;98407.88;4978768;28;20033;-80
2022/08/02 03:33:19;;;;;;;1.20;0.70;;;;;;;26.07;35.57;98418.34;4995378;28;20037;-80
2022/08/02 03:35:46;;;;;;;1.25;0.70;;;;;;;26.10;35.42;98409.06;4961939;28;20034;-80
2022/08/02 03:38:12;;;;;;;1.45;0.63;;;;;;;26.66;34.61;98425.78;4978850;28;20045;-81
2022/08/02 03:40:37;;;;;;;0.80;0.60;;;;;;;27.42;33.38;98429.53;4995375;28;20030;-81
2022/08/02 03:43:03;;;;;;;1.42;0.80;;;;;;;27.91;32.51;98425.69;4981352;28;20038;-81
2022/08/02 03:45:29;;;;;;;5.13;1.23;;;;;;;28.42;31.41;98436.66;4982929;28;20451;-81
2022/08/02 03:47:54;;;;;;;2.35;0.60;;;;;;;28.92;30.38;98437.78;4984229;28;20100;-81
2022/08/02 03:50:21;;;;;;;1.70;0.40;;;;;;;29.49;29.51;98436.78;4967503;28;20030;-82
2022/08/02 03:52:47;;;;;;;0.73;0.50;;;;;;;30.04;28.77;98441.28;4966667;28;20120;-81
2022/08/02 03:55:13;;;;;;;1.08;0.38;;;;;;;30.55;27.85;98437.53;4966325;28;20144;-82
2022/08/02 03:57:39;;;;;;;2.25;0.40;;;;;;;31.11;27.15;98439.94;4999052;28;20486;-82
2022/08/02 04:00:06;;;;;;;1.90;0.30;;;;;;;31.62;26.26;98447.56;4983723;28;20038;-79
2022/08/02 04:02:31;;;;;;;2.13;1.40;;;;;;;32.14;25.68;98451.31;4999779;28;20448;-80
2022/08/02 04:04:57;;;;;;;1.77;0.90;;;;;;;32.67;25.20;98445.75;5015446;28;20052;-82
2022/08/02 04:07:22;;;;;;;2.03;0.93;;;;;;;33.20;24.74;98443.63;4998791;28;20033;-81
2022/08/02 04:09:48;;;;;;;2.55;0.60;;;;;;;33.68;24.08;98444.06;4982554;28;20038;-81
2022/08/02 04:12:13;;;;;;;0.52;0.30;;;;;;;34.12;23.40;98447.94;5015905;28;20382;-81
2022/08/02 04:14:38;;;;;;;2.17;0.60;;;;;;;34.65;22.77;98452.81;5015954;28;20397;-81
2022/08/02 04:17:08;;;;;;;3.22;0.30;;;;;;;35.11;22.63;98452.44;4965938;28;20041;-81
2022/08/02 04:19:41;;;;;;;2.67;0.50;;;;;;;35.57;22.09;98453.13;4981942;28;20052;-82
2022/08/02 04:22:11;;;;;;;0.73;0.50;;;;;;;36.01;21.56;98458.31;4966337;28;20117;-81
2022/08/02 04:24:43;;;;;;;0.75;0.40;;;;;;;36.36;20.95;98458.16;4982383;28;20109;-81
2022/08/02 04:27:09;;;;;;;1.92;0.50;;;;;;;36.72;20.63;98458.41;4982525;28;20026;-81
2022/08/02 04:29:34;;;;;;;1.52;0.50;;;;;;;37.21;20.34;98459.03;5015371;28;20041;-81
2022/08/02 04:32:00;;;;;;;1.55;0.40;;;;;;;37.65;20.39;98449.50;4998217;28;20175;-81
2022/08/02 04:34:25;;;;;;;2.75;0.40;;;;;;;38.06;19.32;98457.94;4982054;28;20081;-80
2022/08/02 04:36:51;;;;;;;1.95;0.50;;;;;;;38.47;19.24;98457.06;4981470;28;20386;-82
2022/08/02 04:39:16;;;;;;;2.60;0.50;;;;;;;38.84;18.88;98455.09;4981643;28;20034;-80
2022/08/02 04:41:43;;;;;;;2.75;0.50;;;;;;;39.17;18.23;98450.22;4981655;28;20085;-80
2022/08/02 04:44:08;;;;;;;3.22;0.43;;;;;;;39.56;18.05;98450.56;4980798;28;20074;-80
2022/08/02 04:46:35;;;;;;;1.70;0.80;;;;;;;39.95;18.17;98457.09;4981967;28;20442;-75
2022/08/02 04:49:00;;;;;;;2.13;0.70;;;;;;;40.27;17.54;98449.59;4981620;28;20409;-78
2022/08/02 04:51:26;;;;;;;5.00;0.85;;;;;;;40.65;16.42;98462.66;4997649;28;20030;-78
2022/08/02 04:53:52;;;;;;;4.20;0.70;;;;;;;41.02;16.21;98463.94;5014216;28;20057;-80
2022/08/02 04:56:17;;;;;;;1.20;0.60;;;;;;;41.41;16.19;98466.72;4981667;28;20026;-80
2022/08/02 04:58:43;;;;;;;0.98;0.50;;;;;;;41.72;16.22;98463.69;4964597;28;20038;-80
2022/08/02 05:01:08;;;;;;;2.22;0.52;;;;;;;42.02;14.50;98457.38;4964791;28;20103;-81
2022/08/02 05:03:34;;;;;;;1.65;0.35;;;;;;;42.38;13.86;98467.78;4964592;28;20093;-81
2022/08/02 05:05:59;;;;;;;1.73;0.60;;;;;;;42.67;13.23;98466.13;4980905;28;20057;-80
2022/08/02 05:08:25;;;;;;;2.63;0.60;;;;;;;42.99;12.84;98470.03;5015047;28;20037;-82
2022/08/02 05:10:51;;;;;;;3.33;0.55;;;;;;;43.27;12.73;98474.91;4997038;28;20039;-81
2022/08/02 05:13:16;;;;;;;16.48;0.95;;;;;;;43.58;12.86;98476.31;4981348;28;20042;-75
2022/08/02 05:15:42;;;;;;;3.77;0.67;;;;;;;44.35;12.37;98466.53;5015161;28;20034;-76
2022/08/02 05:18:07;;;;;;;6.97;0.70;;;;;;;45.27;12.05;98477.69;4981185;28;20029;-76
2022/08/02 05:20:33;;;;;;;2.57;0.73;;;;;;;46.08;10.95;98487.53;4980781;28;20069;-79
2022/08/02 05:22:58;;;;;;;11.83;0.80;;;;;;;46.75;10.98;98476.34;5006291;28;20029;-78
2022/08/02 05:25:24;;;;;;;4.10;0.90;;;;;;;47.39;10.10;98471.19;4996315;28;20485;-77
2022/08/02 05:27:49;;;;;;;7.33;1.33;;;;;;;47.85;10.15;98480.59;4964226;28;20449;-78
2022/08/02 05:30:15;;;;;;;4.80;1.17;;;;;;;48.30;9.83;98484.38;4964417;28;20033;-78
2022/08/02 05:32:47;;;;;;;2.23;1.00;;;;;;;48.68;9.33;98482.47;4981768;28;20026;-80
2022/08/02 05:35:15;;;;;;;3.25;0.88;;;;;;;49.03;9.29;98490.38;4964528;28;20044;-72
2022/08/02 05:37:41;;;;;;;12.32;1.23;;;;;;;49.17;9.58;98486.16;4983367;28;20061;-72
2022/08/02 05:40:07;;;;;;;8.07;1.00;;;;;;;48.90;10.02;98483.53;5013015;28;20061;-70
2022/08/02 05:42:32;;;;;;;5.85;1.00;;;;;;;49.13;10.24;98486.13;5014189;28;20069;-71
2022/08/02 05:44:58;;;;;;;7.73;1.20;;;;;;;49.47;9.70;98496.31;4995907;28;20108;-71
2022/08/02 05:47:24;;;;;;;7.10;1.20;;;;;;;49.73;9.08;98496.16;4986143;28;20091;-71
2022/08/02 05:49:50;;;;;;;4.40;0.90;;;;;;;49.96;9.17;98495.94;4980161;28;20026;-72
2022/08/02 05:52:17;;;;;;;4.53;0.90;;;;;;;50.17;8.95;98488.91;4996402;28;20543;-72
2022/08/02 05:55:21;;;;;;;2.67;1.00;;;;;;;50.23;9.39;98497.66;4963975;28;20038;-71
2022/08/02 05:57:56;;;;;;;5.93;1.15;;;;;;;50.42;8.65;98502.91;4918493;29;20451;-70
2022/08/02 06:00:22;;;;;;;8.70;1.00;;;;;;;50.48;9.33;98484.69;4918251;29;20130;-70
2022/08/02 06:03:15;;;;;;;5.25;0.90;;;;;;;50.52;8.50;98498.56;4902329;29;20040;-70
2022/08/02 06:05:47;;;;;;;4.32;0.80;;;;;;;50.63;9.08;98496.66;4901918;29;20479;-73
2022/08/02 06:08:13;;;;;;;18.35;1.00;;;;;;;50.57;9.69;98497.44;4914903;29;20487;-71
2022/08/02 06:10:38;;;;;;;25.83;1.58;;;;;;;50.38;9.54;98502.09;4916966;29;20047;-78
2022/08/02 06:13:15;;;;;;;12.52;1.10;;;;;;;50.09;9.66;98504.72;4903299;29;20039;-72
2022/08/02 06:15:41;;;;;;;13.10;1.20;;;;;;;50.13;9.38;98501.94;4910822;29;20094;-73
2022/08/02 06:18:06;;;;;;;11.30;1.13;;;;;;;50.18;10.06;98507.13;4932262;29;20040;-71
2022/08/02 06:20:35;;;;;;;9.05;0.98;;;;;;;50.21;9.60;98503.59;4900534;29;20027;-72
2022/08/02 06:23:05;;;;;;;8.75;0.90;;;;;;;50.23;9.74;98509.56;4916169;29;20042;-72
2022/08/02 06:25:32;;;;;;;4.85;0.77;;;;;;;50.22;9.75;98505.19;4892802;29;20091;-73
2022/08/02 06:27:59;;;;;;;12.75;1.10;;;;;;;50.20;10.09;98513.09;4876735;29;20047;-72
2022/08/02 06:30:24;;;;;;;6.75;0.90;;;;;;;50.14;9.87;98514.66;4884932;29;20027;-71
2022/08/02 06:32:50;;;;;;;2.50;0.70;;;;;;;50.14;10.00;98521.00;4992077;28;20072;-72
2022/08/02 06:35:15;;;;;;;3.83;0.77;;;;;;;50.19;9.15;98519.03;4978050;28;20405;-71
2022/08/02 06:37:50;;;;;;;4.20;0.60;;;;;;;50.14;9.13;98511.88;4994044;28;20570;-71
2022/08/02 06:40:39;;;;;;;6.20;0.68;;;;;;;50.06;9.27;98504.69;4966480;28;20261;-70
2022/08/02 06:43:07;;;;;;;5.13;0.60;;;;;;;50.05;9.57;98508.66;4976041;28;20045;-72
2022/08/02 06:45:33;;;;;;;8.27;0.88;;;;;;;50.00;9.72;98504.25;4990469;28;20453;-72
2022/08/02 06:47:59;;;;;;;2.15;0.50;;;;;;;49.96;9.25;98512.56;4975095;28;20121;-78
2022/08/02 06:50:24;;;;;;;2.15;0.50;;;;;;;49.89;9.92;98500.63;4977063;28;20034;-72
2022/08/02 06:52:50;;;;;;;18.23;1.50;;;;;;;49.60;10.24;98508.75;4976869;28;20426;-74
2022/08/02 06:55:16;;;;;;;21.73;1.80;;;;;;;49.44;10.36;98506.22;5010828;28;20531;-75
2022/08/02 06:57:41;;;;;;;14.15;1.15;;;;;;;49.12;10.58;98505.91;4977703;28;20148;-74
2022/08/02 07:00:08;;;;;;;8.77;1.20;;;;;;;49.11;10.63;98502.34;5011295;28;20034;-66
2022/08/02 07:02:38;;;;;;;7.32;0.88;;;;;;;49.20;10.51;98504.81;4956227;28;20121;-78
2022/08/02 07:05:04;;;;;;;3.50;0.70;;;;;;;48.68;11.18;98508.22;4977768;28;20057;-77
2022/08/02 07:07:30;;;;;;;6.63;0.70;;;;;;;48.36;10.42;98505.00;4977538;28;20575;-80
2022/08/02 07:09:56;;;;;;;6.57;0.90;;;;;;;48.61;11.05;98505.34;4978710;28;20037;-77
2022/08/02 07:12:21;;;;;;;16.90;1.30;;;;;;;48.43;10.87;98496.84;4959638;28;20048;-80
2022/08/02 07:14:47;;;;;;;10.83;1.60;;;;;;;47.50;12.32;98501.75;4992460;28;20560;-72
2022/08/02 07:17:12;;;;;;;9.73;1.23;;;;;;;46.33;12.63;98508.19;5010099;28;20049;-72
2022/08/02 07:19:38;;;;;;;5.80;1.20;;;;;;;45.59;13.31;98494.25;4977113;28;20037;-71
2022/08/02 07:22:04;;;;;;;5.60;0.90;;;;;;;44.85;13.61;98498.25;4992819;28;20029;-70
2022/08/02 07:24:29;;;;;;;21.13;1.27;;;;;;;44.44;13.98;98495.50;4976555;28;20057;-72
2022/08/02 07:26:56;;;;;;;6.57;0.80;;;;;;;43.79;14.59;98495.47;5010313;28;20026;-74
2022/08/02 07:29:21;;;;;;;5.45;0.90;;;;;;;43.04;15.16;98487.44;4976915;28;20026;-71
2022/08/02 07:31:47;;;;;;;4.93;1.00;;;;;;;43.41;14.74;98490.28;4993118;28;20038;-70
2022/08/02 07:34:12;;;;;;;5.07;0.93;;;;;;;42.96;15.12;98486.34;4992896;28;20088;-71
2022/08/02 07:36:37;;;;;;;4.63;0.90;;;;;;;42.88;15.17;98479.03;4993025;28;20072;-71
2022/08/02 07:39:03;;;;;;;3.13;0.80;;;;;;;43.52;14.40;98477.69;4978670;28;20029;-72
2022/08/02 07:41:29;;;;;;;2.77;0.67;;;;;;;44.04;13.90;98489.94;4992966;28;20537;-83
2022/08/02 07:43:54;;;;;;;2.17;0.57;;;;;;;44.34;13.14;98486.94;4993966;28;20034;-75
2022/08/02 07:46:20;;;;;;;4.80;0.70;;;;;;;44.60;13.16;98484.56;4975348;28;20022;-74
2022/08/02 07:48:46;;;;;;;3.97;0.60;;;;;;;44.86;13.29;98480.56;4973976;28;20399;-73
2022/08/02 07:51:12;;;;;;;2.53;0.70;;;;;;;45.06;13.25;98487.03;4986424;28;20108;-74
2022/08/02 07:53:37;;;;;;;5.97;0.90;;;;;;;45.18;13.66;98490.84;4961317;28;20144;-77
2022/08/02 07:56:03;;;;;;;4.53;0.60;;;;;;;45.31;12.71;98492.34;4977304;28;20084;-76
2022/08/02 07:58:29;;;;;;;1.83;0.67;;;;;;;45.49;12.37;98496.38;4960889;28;20022;-74
2022/08/02 08:00:54;;;;;;;1.70;0.57;;;;;;;45.28;12.51;98495.84;4977788;28;20034;-77
2022/08/02 08:03:20;;;;;;;4.43;0.67;;;;;;;44.23;13.61;98490.19;4974030;28;20548;-78
2022/08/02 08:05:45;;;;;;;4.67;0.60;;;;;;;43.64;14.07;98496.13;4975957;28;20081;-76
2022/08/02 08:08:11;;;;;;;3.63;0.40;;;;;;;44.06;13.74;98495.88;4960439;28;20030;-75
2022/08/02 08:10:38;;;;;;;2.30;0.53;;;;;;;44.57;13.60;98496.25;4976347;28;20164;-78
2022/08/02 08:13:04;;;;;;;1.92;0.40;;;;;;;44.91;13.22;98494.06;4977598;28;20033;-76
2022/08/02 08:15:29;;;;;;;2.50;0.50;;;;;;;44.19;13.79;98492.00;4994047;28;20022;-76
2022/08/02 08:17:55;;;;;;;4.90;0.50;;;;;;;43.76;14.43;98498.06;4994322;28;20026;-77
2022/08/02 08:20:20;;;;;;;1.80;0.33;;;;;;;43.17;15.15;98506.34;4992935;28;20481;-79
2022/08/02 08:22:46;;;;;;;2.37;0.53;;;;;;;42.68;15.51;98505.34;4993010;28;20106;-80
2022/08/02 08:25:12;;;;;;;1.73;0.63;;;;;;;42.18;15.65;98506.97;4960027;28;20113;-77
2022/08/02 08:27:37;;;;;;;4.03;0.50;;;;;;;41.68;16.39;98497.53;4992924;28;20112;-78
2022/08/02 08:30:03;;;;;;;5.33;0.50;;;;;;;41.25;17.07;98510.22;4977976;28;20038;-76
2022/08/02 08:32:29;;;;;;;2.40;0.50;;;;;;;40.84;17.34;98506.88;4995643;28;20156;-82
2022/08/02 08:34:54;;;;;;;1.42;0.52;;;;;;;40.46;18.05;98509.47;4963779;28;20042;-79
2022/08/02 08:37:20;;;;;;;3.25;0.70;;;;;;;40.12;18.41;98498.16;4996115;28;20037;-78
2022/08/02 08:39:45;;;;;;;2.10;0.68;;;;;;;39.85;18.74;98504.63;4963146;28;20038;-78
2022/08/02 08:42:11;;;;;;;4.38;0.50;;;;;;;40.45;17.99;98494.97;4979405;28;20032;-75
2022/08/02 08:44:36;;;;;;;5.80;0.70;;;;;;;41.00;17.68;98495.47;4979090;28;20076;-75
2022/08/02 08:47:03;;;;;;;3.78;0.60;;;;;;;41.39;17.30;98499.13;4995465;28;20416;-74
2022/08/02 08:49:36;;;;;;;4.63;0.50;;;;;;;41.64;16.98;98499.31;4963006;28;20127;-89
2022/08/02 08:52:05;;;;;;;4.00;0.65;;;;;;;41.28;16.91;98487.72;4977052;28;20034;-80
2022/08/02 08:54:31;;;;;;;15.63;1.35;;;;;;;40.99;17.45;98494.69;4978729;28;20112;-76
2022/08/02 08:56:57;;;;;;;11.10;1.20;;;;;;;40.51;18.62;98493.69;4979165;28;20021;-80
2022/08/02 08:59:22;;;;;;;8.40;1.20;;;;;;;40.81;17.98;98496.59;4979518;28;20038;-79
2022/08/02 09:01:49;;;;;;;4.20;0.80;;;;;;;41.20;16.68;98494.00;4978563;28;20041;-80
2022/08/02 09:04:14;;;;;;;3.63;0.60;;;;;;;41.41;16.35;98485.88;4968136;28;20050;-78
2022/08/02 09:06:40;;;;;;;2.33;0.50;;;;;;;41.61;16.06;98497.25;4978686;28;20120;-78
2022/08/02 09:09:05;;;;;;;1.23;0.50;;;;;;;41.73;15.30;98487.22;4978311;28;20048;-78
2022/08/02 09:11:31;;;;;;;4.95;0.50;;;;;;;41.38;15.72;98489.28;4997390;28;20459;-83
2022/08/02 09:13:59;;;;;;;9.65;0.50;;;;;;;41.09;15.59;98481.75;4962805;28;20192;-80
2022/08/02 09:16:31;;;;;;;4.88;0.50;;;;;;;41.44;15.15;98479.75;4978099;28;20034;-77
2022/08/02 09:18:57;;;;;;;1.83;0.40;;;;;;;40.86;15.20;98485.53;4992473;28;20033;-77
2022/08/02 09:21:22;;;;;;;0.63;0.32;;;;;;;40.50;15.65;98475.69;4995019;28;20494;-76
2022/08/02 09:23:50;;;;;;;0.68;0.38;;;;;;;40.22;15.88;98475.16;4994814;28;20108;-77
2022/08/02 09:26:20;;;;;;;1.60;0.45;;;;;;;40.28;15.82;98479.34;4960126;28;20485;-77
2022/08/02 09:28:48;;;;;;;0.80;0.30;;;;;;;39.84;16.13;98470.25;4993748;28;20447;-77
2022/08/02 09:31:19;;;;;;;2.13;0.40;;;;;;;40.13;15.83;98477.88;4976322;28;20371;-77
2022/08/02 09:33:50;;;;;;;1.17;0.40;;;;;;;40.32;15.87;98465.84;4962852;28;20061;-77
2022/08/02 09:36:15;;;;;;;1.08;0.30;;;;;;;39.98;16.24;98465.50;4983500;28;20022;-78
2022/08/02 09:39:04;;;;;;;1.92;0.55;;;;;;;39.61;16.49;98461.34;4976822;28;20029;-76
2022/08/02 09:41:31;;;;;;;0.60;0.30;;;;;;;39.27;16.49;98468.25;4978069;28;20029;-83
2022/08/02 09:43:57;;;;;;;;;;;;;;;38.97;17.07;98459.69;4960679;28;20031;-79
2022/08/02 09:46:28;;;;;;;0.60;0.37;;;;;;;38.64;17.34;98467.34;4978146;28;19921;-82
2022/08/02 09:48:57;;;;;;;1.15;0.40;;;;;;;38.43;17.91;98467.78;4962845;28;20069;-83
2022/08/02 09:51:33;;;;;;;0.47;0.38;;;;;;;38.25;18.65;98468.72;4962706;28;20029;-80
2022/08/02 09:54:01;;;;;;;1.13;0.40;;;;;;;38.05;18.60;98461.75;4976065;28;20042;-80
2022/08/02 09:56:27;;;;;;;;;;;;;;;38.21;18.38;98465.00;4978488;28;20409;-79
2022/08/02 09:58:55;;;;;;;0.93;0.40;;;;;;;38.36;18.18;98454.56;4993912;28;19909;-81
2022/08/02 10:01:29;;;;;;;1.17;0.50;;;;;;;38.52;18.34;98451.47;4962689;28;20481;-81
2022/08/02 10:04:01;;;;;;;0.98;0.40;;;;;;;38.66;17.87;98449.53;4962316;28;20076;-79
2022/08/02 10:06:27;;;;;;;2.40;0.60;;;;;;;38.71;17.59;98452.16;4993840;28;20392;-82
2022/08/02 10:08:53;;;;;;;0.60;0.40;;;;;;;38.61;17.86;98448.81;4977985;28;20030;-81
2022/08/02 10:11:20;;;;;;;1.25;0.40;;;;;;;38.52;17.60;98446.84;4961527;28;20508;-81
2022/08/02 10:13:46;;;;;;;0.60;0.40;;;;;;;38.30;17.71;98447.63;4961795;28;20044;-80
2022/08/02 10:16:12;;;;;;;1.20;0.50;;;;;;;38.22;17.76;98453.00;4961598;28;20014;-82
2022/08/02 10:18:37;;;;;;;1.05;0.40;;;;;;;38.07;17.79;98448.66;4961479;28;20061;-82
2022/08/02 10:21:03;;;;;;;3.63;0.40;;;;;;;37.91;17.58;98446.25;4961132;28;20034;-80
2022/08/02 10:23:28;;;;;;;1.55;0.40;;;;;;;37.73;17.63;98445.25;4977709;28;20044;-79
2022/08/02 10:25:54;;;;;;;2.15;0.50;;;;;;;37.65;18.26;98449.50;4961349;28;20105;-83
2022/08/02 10:28:25;;;;;;;2.17;0.40;;;;;;;37.83;17.94;98446.97;4961725;28;20033;-80
2022/08/02 10:30:50;;;;;;;2.35;0.50;;;;;;;37.91;18.56;98437.28;5010954;28;20079;-79
2022/08/02 10:33:16;;;;;;;1.30;0.50;;;;;;;37.86;18.58;98438.22;4977344;28;20112;-81
2022/08/02 10:35:42;;;;;;;2.05;0.45;;;;;;;37.77;18.69;98442.75;4977313;28;20079;-82
2022/08/02 10:38:09;;;;;;;1.73;0.47;;;;;;;37.72;18.53;98445.56;4961587;28;20301;-84
2022/08/02 10:40:42;;;;;;;3.10;0.60;;;;;;;37.64;18.83;98452.50;4975029;28;20076;-80
2022/08/02 10:43:07;;;;;;;0.90;0.40;;;;;;;37.54;18.73;98448.03;4993826;28;20044;-81
2022/08/02 10:45:33;;;;;;;3.53;0.50;;;;;;;37.44;18.92;98442.81;4959749;28;20042;-78
2022/08/02 10:48:06;;;;;;;1.73;0.60;;;;;;;37.43;18.81;98452.91;4978495;28;20057;-84
2022/08/02 10:50:44;;;;;;;1.42;0.65;;;;;;;37.36;19.04;98438.06;4978648;28;20038;-81
2022/08/02 10:53:25;;;;;;;1.75;0.50;;;;;;;37.41;19.04;98446.94;4993948;28;20057;-82
2022/08/02 10:55:52;;;;;;;5.00;0.68;;;;;;;37.37;19.48;98440.50;5012848;28;20045;-81
2022/08/02 10:58:18;;;;;;;1.33;0.70;;;;;;;37.34;19.39;98441.09;4979254;28;20080;-79
2022/08/02 11:00:44;;;;;;;1.83;0.47;;;;;;;37.32;19.96;98439.78;4978252;28;20068;-83
2022/08/02 11:03:28;;;;;;;0.77;0.50;;;;;;;37.43;19.24;98435.75;4962367;28;20493;-80
2022/08/02 11:06:04;;;;;;;1.95;0.43;;;;;;;37.45;19.30;98437.06;5012301;28;20021;-79
2022/08/02 11:08:29;;;;;;;4.13;0.60;;;;;;;37.36;18.95;98425.25;4979162;28;20053;-81
2022/08/02 11:11:21;;;;;;;3.28;0.50;;;;;;;37.33;18.83;98425.88;4962971;28;20048;-80
2022/08/02 11:14:07;;;;;;;0.73;0.45;;;;;;;37.29;18.84;98422.94;4991510;28;20121;-81
2022/08/02 11:16:54;;;;;;;2.35;0.60;;;;;;;37.34;18.92;98432.09;4979748;28;20095;-81
2022/08/02 11:19:20;;;;;;;1.13;0.60;;;;;;;37.39;18.42;98419.22;4994888;28;20030;-80
2022/08/02 11:22:09;;;;;;;2.50;0.60;;;;;;;37.41;18.29;98430.59;4979141;28;20108;-80
2022/08/02 11:24:36;;;;;;;3.00;0.57;;;;;;;37.36;18.92;98422.53;4995599;28;20029;-81
2022/08/02 11:27:03;;;;;;;2.93;0.50;;;;;;;37.30;18.90;98435.44;4978051;28;20034;-77
2022/08/02 11:29:35;;;;;;;2.00;0.60;;;;;;;37.06;19.37;98421.16;4960392;28;20281;-74
2022/08/02 11:32:00;;;;;;;1.80;0.50;;;;;;;36.83;19.68;98428.34;4993913;28;20036;-75
2022/08/02 11:34:26;;;;;;;4.78;0.70;;;;;;;36.50;19.80;98433.75;4993550;28;20030;-69
2022/08/02 11:36:51;;;;;;;1.55;0.50;;;;;;;36.16;20.07;98432.03;4993110;28;20056;-71